Time;durP1;ratioP1;P1;durP2;ratioP2;P2;SDS_P1;SDS_P2;PMS_P1;PMS_P2;Temp;Humidity;BMP_temperature;BMP_pressure;BME280_temperature;BME280_humidity;BME280_pressure;Samples;Min_cycle;Max_cycle;Signal;HPM_P1;HPM_P2
2022/06/17 00:01:34;;;;;;;;;;;;;;;21.75;27.37;98218.88;4862632;29;937;-77
2022/06/17 00:04:00;;;;;;;;;;;;;;;21.67;27.70;98217.47;4863160;29;983;-77
2022/06/17 00:06:25;;;;;;;;;;;;;;;21.44;28.16;98209.09;4869517;29;971;-77
2022/06/17 00:08:51;;;;;;;;;;;;;;;21.43;27.99;98218.84;4881619;29;1043;-77
2022/06/17 00:11:19;;;;;;;;;;;;;;;21.31;28.31;98211.84;4844065;29;1015;-77
2022/06/17 00:13:44;;;;;;;;;;;;;;;21.35;28.41;98211.72;4826405;29;1994;-78
2022/06/17 00:16:11;;;;;;;;;;;;;;;21.32;28.46;98214.22;4826111;29;1217;-77
2022/06/17 00:18:36;;;;;;;;;;;;;;;21.29;28.30;98215.06;4807584;29;973;-77
2022/06/17 00:21:02;;;;;;;;;;;;;;;21.28;28.46;98207.81;4807660;29;1233;-77
2022/06/17 00:23:27;;;;;;;;;;;;;;;21.34;28.19;98205.28;4821380;29;903;-77
2022/06/17 00:25:53;;;;;;;;;;;;;;;21.32;28.65;98214.22;4807627;29;966;-77
2022/06/17 00:28:19;;;;;;;;;;;;;;;21.39;28.27;98203.97;4807367;29;978;-77
2022/06/17 00:30:46;;;;;;;;;;;;;;;21.24;28.50;98200.63;4786530;30;1809;-77
2022/06/17 00:33:12;;;;;;;;;;;;;;;21.18;28.66;98197.50;4785508;30;1896;-77
2022/06/17 00:35:39;;;;;;;;;;;;;;;21.83;27.70;98209.00;4791616;29;1062;-77
2022/06/17 00:38:04;;;;;;;;;;;;;;;22.03;27.50;98199.63;4822478;29;1004;-77
2022/06/17 00:40:31;;;;;;;;;;;;;;;21.74;27.86;98205.19;4821665;29;1002;-77
2022/06/17 00:42:56;;;;;;;;;;;;;;;21.55;27.98;98204.00;4858239;29;1645;-77
2022/06/17 00:45:22;;;;;;;;;;;;;;;21.38;28.25;98199.53;4807668;29;1036;-77
2022/06/17 00:47:57;;;;;;;;;;;;;;;21.31;28.51;98201.31;4843618;29;1155;-78
2022/06/17 00:50:36;;;;;;;;;;;;;;;21.46;28.31;98201.78;4843355;29;990;-78
2022/06/17 00:53:16;;;;;;;;;;;;;;;21.31;28.42;98206.19;4843504;29;1911;-77
2022/06/17 00:55:54;;;;;;;;;;;;;;;21.23;28.63;98199.81;4843671;29;1115;-78
2022/06/17 00:58:28;;;;;;;;;;;;;;;21.23;28.73;98188.50;4843851;29;939;-77
2022/06/17 01:00:54;;;;;;;;;;;;;;;21.28;28.83;98188.00;4846370;29;1117;-77
2022/06/17 01:03:22;;;;;;;;;;;;;;;21.58;28.32;98191.81;4864993;29;1320;-77
2022/06/17 01:05:49;;;;;;;;;;;;;;;22.01;27.69;98182.25;4880681;29;975;-78
2022/06/17 01:09:56;;;;;;;;;;;;;;;21.84;27.50;98187.94;4880344;29;1196;-77
2022/06/17 01:11:01;;;;;;;;;;;;;;;21.45;28.62;98183.22;4880800;29;1254;-77
2022/06/17 01:13:27;;;;;;;;;;;;;;;21.39;28.45;98175.66;4880213;29;1915;-77
2022/06/17 01:15:52;;;;;;;;;;;;;;;21.24;28.66;98184.47;4865091;29;1156;-78
2022/06/17 01:18:18;;;;;;;;;;;;;;;21.33;28.77;98184.66;4864754;29;1228;-77
2022/06/17 01:20:48;;;;;;;;;;;;;;;21.30;28.75;98179.13;4917916;29;1066;-78
2022/06/17 01:23:14;;;;;;;;;;;;;;;21.32;28.83;98183.09;4861249;29;1179;-77
2022/06/17 01:25:41;;;;;;;;;;;;;;;21.38;28.82;98183.34;4836816;29;1085;-77
2022/06/17 01:28:08;;;;;;;;;;;;;;;21.34;28.54;98182.63;4825007;29;1239;-77
2022/06/17 01:30:41;;;;;;;;;;;;;;;21.83;27.89;98180.66;4800330;29;1310;-78
2022/06/17 01:33:08;;;;;;;;;;;;;;;22.17;27.29;98173.75;4824867;29;1966;-77
2022/06/17 01:35:59;;;;;;;;;;;;;;;21.83;27.74;98172.16;4824859;29;981;-77
2022/06/17 01:38:25;;;;;;;;;;;;;;;21.50;28.33;98171.38;4753049;30;1010;-77
2022/06/17 01:40:50;;;;;;;;;;;;;;;21.45;28.54;98159.75;4735041;30;1130;-78
2022/06/17 01:43:17;;;;;;;;;;;;;;;21.31;28.52;98158.06;4735225;30;1193;-78
2022/06/17 01:45:49;;;;;;;;;;;;;;;21.41;28.55;98159.06;4752507;30;1129;-77
2022/06/17 01:48:16;;;;;;;;;;;;;;;21.15;29.12;98158.00;4700281;30;1124;-77
2022/06/17 01:50:41;;;;;;;;;;;;;;;21.20;28.98;98155.44;4683976;30;1171;-78
2022/06/17 01:53:14;;;;;;;;;;;;;;;21.21;28.73;98157.03;4698239;30;1916;-77
2022/06/17 01:55:44;;;;;;;;;;;;;;;21.29;28.78;98149.16;4752735;30;1161;-78
2022/06/17 01:58:13;;;;;;;;;;;;;;;21.20;29.25;98149.78;4735074;30;1327;-78
2022/06/17 02:00:41;;;;;;;;;;;;;;;21.77;28.34;98154.13;4735061;30;1154;-77
2022/06/17 02:03:36;;;;;;;;;;;;;;;22.02;27.64;98153.50;4734960;30;1306;-77
2022/06/17 02:06:08;;;;;;;;;;;;;;;21.74;28.22;98146.50;4717388;30;1272;-77
2022/06/17 02:08:35;;;;;;;;;;;;;;;21.46;28.58;98150.03;4732037;30;1275;-77
2022/06/17 02:11:01;;;;;;;;;;;;;;;21.32;28.74;98148.31;4732052;30;1204;-77
2022/06/17 02:13:28;;;;;;;;;;;;;;;21.23;29.18;98146.06;4721754;30;1899;-77
2022/06/17 02:16:16;;;;;;;;;;;;;;;21.36;28.93;98151.88;4754475;30;1049;-78
2022/06/17 02:19:00;;;;;;;;;;;;;;;21.38;28.59;98154.25;4763372;30;1312;-77
2022/06/17 02:21:28;;;;;;;;;;;;;;;21.32;28.94;98151.16;4788176;30;1239;-77
2022/06/17 02:23:53;;;;;;;;;;;;;;;21.13;29.08;98149.94;4791673;29;1185;-77
2022/06/17 02:26:19;;;;;;;;;;;;;;;21.14;29.15;98151.53;4796545;29;1159;-78
2022/06/17 02:28:44;;;;;;;;;;;;;;;21.69;28.47;98152.69;4787737;30;1238;-77
2022/06/17 02:31:11;;;;;;;;;;;;;;;22.18;27.73;98161.22;4784783;30;1236;-77
2022/06/17 02:33:37;;;;;;;;;;;;;;;21.75;28.05;98148.09;4754274;30;1982;-77
2022/06/17 02:36:34;;;;;;;;;;;;;;;21.47;28.65;98151.63;4717490;30;1347;-78
2022/06/17 02:39:00;;;;;;;;;;;;;;;21.38;28.81;98154.25;4702906;30;1083;-77
2022/06/17 02:41:26;;;;;;;;;;;;;;;21.36;28.74;98156.75;4696243;30;1282;-77
2022/06/17 02:43:56;;;;;;;;;;;;;;;21.29;28.88;98158.44;4707904;30;1125;-77
2022/06/17 02:46:26;;;;;;;;;;;;;;;21.37;28.75;98153.47;4728239;30;1134;-78
2022/06/17 02:48:56;;;;;;;;;;;;;;;21.31;29.16;98152.41;4688708;30;1106;-78
2022/06/17 02:51:21;;;;;;;;;;;;;;;21.32;29.10;98151.94;4721744;30;1261;-77
2022/06/17 02:53:47;;;;;;;;;;;;;;;21.37;28.82;98152.66;4702349;30;1985;-77
2022/06/17 02:56:20;;;;;;;;;;;;;;;21.33;29.19;98158.41;4687912;30;1587;-77
2022/06/17 02:59:05;;;;;;;;;;;;;;;21.30;28.86;98159.31;4698847;30;1146;-77
2022/06/17 03:01:34;;;;;;;;;;;;;;;21.20;29.00;98161.09;4669055;30;1389;-77
2022/06/17 03:04:24;;;;;;;;;;;;;;;21.39;28.79;98161.50;4709245;30;1092;-78
2022/06/17 03:06:52;;;;;;;;;;;;;;;21.31;28.95;98161.69;4713219;30;1319;-76
2022/06/17 03:09:32;;;;;;;;;;;;;;;21.29;29.08;98164.09;4716973;30;1387;-76
2022/06/17 03:12:02;;;;;;;;;;;;;;;21.28;29.03;98161.72;4707051;30;1908;-76
2022/06/17 03:14:33;;;;;;;;;;;;;;;21.19;29.06;98158.69;4698851;30;1073;-75
2022/06/17 03:17:00;;;;;;;;;;;;;;;21.29;29.27;98166.94;4699526;30;1277;-76
2022/06/17 03:19:26;;;;;;;;;;;;;;;21.37;28.86;98161.16;4754888;30;1193;-76
2022/06/17 03:21:51;;;;;;;;;;;;;;;21.42;28.68;98158.59;4754699;30;1235;-76
2022/06/17 03:24:16;;;;;;;;;;;;;;;21.34;29.09;98165.66;4755013;30;1011;-76
2022/06/17 03:26:44;;;;;;;;;;;;;;;21.17;29.20;98161.97;4772629;30;1243;-76
2022/06/17 03:29:09;;;;;;;;;;;;;;;21.33;29.00;98159.19;4750644;30;1156;-76
2022/06/17 03:31:36;;;;;;;;;;;;;;;21.29;29.19;98152.78;4725855;30;1121;-76
2022/06/17 03:34:04;;;;;;;;;;;;;;;21.39;28.88;98161.50;4717924;30;2050;-76
2022/06/17 03:36:44;;;;;;;;;;;;;;;21.75;28.37;98162.25;4717023;30;1109;-76
2022/06/17 03:39:18;;;;;;;;;;;;;;;21.80;28.11;98158.88;4715964;30;1177;-77
2022/06/17 03:41:54;;;;;;;;;;;;;;;21.63;28.60;98148.81;4750129;30;959;-77
2022/06/17 03:44:21;;;;;;;;;;;;;;;21.44;28.77;98146.84;4807921;29;1330;-76
2022/06/17 03:46:52;;;;;;;;;;;;;;;21.44;28.83;98153.28;4792704;29;1196;-76
2022/06/17 03:49:21;;;;;;;;;;;;;;;21.37;28.99;98147.00;4807118;29;1213;-77
2022/06/17 03:51:48;;;;;;;;;;;;;;;21.30;29.13;98153.66;4782544;29;1899;-76
2022/06/17 03:54:13;;;;;;;;;;;;;;;21.36;29.15;98151.09;4771991;30;1345;-76
2022/06/17 03:56:40;;;;;;;;;;;;;;;21.32;29.14;98145.50;4747192;30;1278;-77
2022/06/17 03:59:06;;;;;;;;;;;;;;;21.28;29.29;98148.38;4722037;30;1066;-76
2022/06/17 04:01:33;;;;;;;;;;;;;;;21.31;29.43;98147.53;4716240;30;1491;-77
2022/06/17 04:04:08;;;;;;;;;;;;;;;21.25;29.40;98152.09;4728346;30;1182;-76
2022/06/17 04:06:38;;;;;;;;;;;;;;;21.27;29.32;98154.47;4720424;30;1113;-76
2022/06/17 04:09:18;;;;;;;;;;;;;;;21.16;29.57;98142.59;4682324;30;1156;-77
2022/06/17 04:11:45;;;;;;;;;;;;;;;21.26;29.48;98153.69;4684475;30;1107;-76
2022/06/17 04:14:23;;;;;;;;;;;;;;;21.85;28.75;98143.41;4718921;30;1249;-76
2022/06/17 04:16:50;;;;;;;;;;;;;;;21.83;28.71;98134.56;4751995;30;1416;-76
2022/06/17 04:19:16;;;;;;;;;;;;;;;21.58;28.91;98146.50;4736103;30;1227;-76
2022/06/17 04:21:48;;;;;;;;;;;;;;;21.58;29.00;98146.50;4718708;30;1292;-76
2022/06/17 04:24:19;;;;;;;;;;;;;;;21.50;29.26;98145.06;4701324;30;1130;-76
2022/06/17 04:26:54;;;;;;;;;;;;;;;21.53;29.22;98138.53;4664687;30;1163;-77
2022/06/17 04:29:28;;;;;;;;;;;;;;;21.45;29.14;98148.41;4650048;30;1222;-76
2022/06/17 04:31:59;;;;;;;;;;;;;;;21.45;29.24;98149.25;4666760;30;1917;-76
2022/06/17 04:34:25;;;;;;;;;;;;;;;21.32;29.41;98146.28;4726211;30;1115;-76
2022/06/17 04:37:17;;;;;;;;;;;;;;;21.57;28.96;98147.75;4711800;30;1277;-76
2022/06/17 04:40:02;;;;;;;;;;;;;;;21.37;29.38;98149.84;4695201;30;1006;-76
2022/06/17 04:42:31;;;;;;;;;;;;;;;21.09;29.79;98149.22;4698099;30;1037;-77
2022/06/17 04:44:58;;;;;;;;;;;;;;;21.26;29.44;98150.06;4718072;30;1205;-77
2022/06/17 04:47:24;;;;;;;;;;;;;;;21.16;29.59;98143.41;4738221;30;1201;-76
2022/06/17 04:49:55;;;;;;;;;;;;;;;21.18;29.74;98143.75;4762821;30;1362;-76
2022/06/17 04:52:36;;;;;;;;;;;;;;;21.29;29.43;98141.47;4777666;30;1915;-77
2022/06/17 04:55:20;;;;;;;;;;;;;;;21.45;29.31;98148.41;4785113;29;1927;-77
2022/06/17 04:57:59;;;;;;;;;;;;;;;21.32;29.75;98146.28;4815273;29;1770;-76
2022/06/17 05:00:25;;;;;;;;;;;;;;;21.82;29.56;98139.44;4807926;29;1769;-76
2022/06/17 05:02:54;;;;;;;;;;;;;;;22.02;28.76;98147.00;4815149;29;1865;-77
2022/06/17 05:05:39;;;;;;;;;;;;;;;21.69;29.29;98152.69;4846513;29;1346;-77
2022/06/17 05:08:10;;;;;;;;;;;;;;;21.44;29.86;98147.63;4861112;29;2124;-77
2022/06/17 05:10:41;;;;;;;;;;;;;;;21.47;29.57;98151.63;4859019;29;1743;-77
2022/06/17 05:13:17;;;;;;;;;;;;;;;21.57;29.41;98156.22;4841554;29;1899;-77
2022/06/17 05:15:43;;;;;;;;;;;;;;;21.56;29.77;98161.09;4842885;29;1826;-77
2022/06/17 05:18:09;;;;;;;;;;;;;;;21.40;29.83;98158.25;4836152;29;965;-77
2022/06/17 05:20:35;;;;;;;;;;;;;;;21.48;29.40;98158.88;4842729;29;1900;-77
2022/06/17 05:23:02;;;;;;;;;;;;;;;21.25;29.83;98160.59;4793572;29;1241;-77
2022/06/17 05:25:29;;;;;;;;;;;;;;;21.35;29.54;98160.78;4821175;29;1704;-76
2022/06/17 05:27:56;;;;;;;;;;;;;;;21.41;29.57;98159.06;4826600;29;2023;-83
2022/06/17 05:30:21;;;;;;;;;;;;;;;21.76;30.10;98158.19;4808341;29;2042;-72
2022/06/17 05:32:48;;;;;;;;;;;;;;;22.58;30.37;98160.91;4802779;29;1974;-74
2022/06/17 05:35:13;;;;;;;;;;;;;;;22.39;30.99;98165.50;4778383;30;1230;-72
2022/06/17 05:37:40;;;;;;;;;;;;;;;22.75;31.15;98159.63;4750364;30;1158;-71
2022/06/17 05:40:09;;;;;;;;;;;;;;;22.32;32.42;98160.81;4783857;29;1604;-73
2022/06/17 05:42:36;;;;;;;;;;;;;;;22.52;31.87;98160.66;4800331;29;1731;-76
2022/06/17 05:45:01;;;;;;;;;;;;;;;22.14;31.97;98166.16;4824587;29;1247;-76
2022/06/17 05:47:41;;;;;;;;;;;;;;;21.65;32.25;98166.13;4824122;29;1456;-76
2022/06/17 05:50:21;;;;;;;;;;;;;;;21.32;32.76;98168.13;4824183;29;1262;-75
2022/06/17 05:53:19;;;;;;;;;;;;;;;21.42;32.07;98166.31;4831524;29;1899;-75
2022/06/17 05:55:50;;;;;;;;;;;;;;;21.69;31.14;98166.84;4865136;29;1092;-76
2022/06/17 05:58:16;;;;;;;;;;;;;;;21.42;31.45;98160.63;4879315;29;1041;-75
2022/06/17 06:00:42;;;;;;;;;;;;;;;21.61;31.08;98162.63;4879434;29;1090;-75
2022/06/17 06:03:08;;;;;;;;;;;;;;;21.56;30.89;98160.31;4887620;29;1189;-76
2022/06/17 06:05:36;;;;;;;;;;;;;;;21.57;30.56;98156.22;4945339;28;1074;-76
2022/06/17 06:08:06;;;;;;;;;;;;;;;21.40;30.78;98155.44;4957779;28;1556;-76
2022/06/17 06:10:31;;;;;;;;;;;;;;;21.52;30.50;98156.75;4958254;28;1465;-76
2022/06/17 06:12:57;;;;;;;;;;;;;;;21.41;30.85;98150.56;4958533;29;1969;-76
2022/06/17 06:15:36;;;;;;;;;;;;;;;21.19;30.90;98153.84;4927608;29;1051;-76
2022/06/17 06:18:13;;;;;;;;;;;;;;;21.38;30.31;98145.78;4901558;29;1338;-75
2022/06/17 06:20:39;;;;;;;;;;;;;;;21.50;30.18;98153.56;4870223;29;1162;-76
2022/06/17 06:23:05;;;;;;;;;;;;;;;21.44;30.19;98144.78;4882661;29;1150;-75
2022/06/17 06:25:31;;;;;;;;;;;;;;;21.53;30.22;98144.19;4882447;29;1222;-76
2022/06/17 06:27:57;;;;;;;;;;;;;;;21.38;30.52;98152.22;4884498;29;1225;-75
2022/06/17 06:30:29;;;;;;;;;;;;;;;22.12;30.26;98151.63;4900179;29;1638;-73
2022/06/17 06:32:56;;;;;;;;;;;;;;;22.69;31.39;98152.94;4892217;29;1911;-73
2022/06/17 06:35:24;;;;;;;;;;;;;;;23.28;31.90;98153.63;4902033;29;2044;-76
2022/06/17 06:37:50;;;;;;;;;;;;;;;22.99;32.36;98150.84;4884627;29;1983;-73
2022/06/17 06:40:16;;;;;;;;;;;;;;;22.18;33.58;98149.88;4899950;29;2080;-76
2022/06/17 06:42:41;;;;;;;;;;;;;;;22.71;33.16;98146.78;4890953;29;1671;-74
2022/06/17 06:45:26;;;;;;;;;;;;;;;22.66;33.80;98150.19;4899774;29;2111;-70
2022/06/17 06:47:52;;;;;;;;;;;;;;;23.15;33.06;98145.09;4902263;29;1276;-75
2022/06/17 06:50:23;;;;;;;;;;;;;;;23.79;31.87;98145.94;4923000;29;1330;-75
2022/06/17 06:52:53;;;;;;;;;;;;;;;24.19;30.87;98145.41;4922436;28;1906;-75
2022/06/17 06:55:19;;;;;;;;;;;;;;;24.40;31.78;98138.97;4941596;29;1314;-77
2022/06/17 06:57:54;;;;;;;;;;;;;;;24.52;31.09;98136.53;4960535;28;1631;-77
2022/06/17 07:00:23;;;;;;;;;;;;;;;24.47;31.25;98134.28;4938573;29;1309;-80
2022/06/17 07:02:49;;;;;;;;;;;;;;;24.46;31.07;98136.34;4923490;29;1803;-78
2022/06/17 07:05:14;;;;;;;;;;;;;;;24.56;31.44;98145.75;4940948;29;2023;-79
2022/06/17 07:07:40;;;;;;;;;;;;;;;24.63;29.79;98140.56;4936816;29;1870;-73
2022/06/17 07:10:05;;;;;;;;;;;;;;;24.70;29.76;98136.66;4941880;29;941;-75
2022/06/17 07:12:31;;;;;;;;;;;;;;;24.75;30.13;98141.75;4952862;29;1984;-72
2022/06/17 07:14:56;;;;;;;;;;;;;;;24.92;29.63;98151.69;4952548;29;1951;-75
2022/06/17 07:17:22;;;;;;;;;;;;;;;24.75;29.70;98147.44;4917941;29;1852;-77
2022/06/17 07:19:47;;;;;;;;;;;;;;;24.82;30.05;98147.19;4917781;29;1806;-73
2022/06/17 07:22:13;;;;;;;;;;;;;;;24.90;29.75;98147.72;4918544;29;1747;-73
2022/06/17 07:24:38;;;;;;;;;;;;;;;25.02;29.65;98148.88;4917470;29;1954;-77
2022/06/17 07:27:04;;;;;;;;;;;;;;;24.81;30.17;98141.94;4918818;29;1894;-76
2022/06/17 07:29:29;;;;;;;;;;;;;;;24.73;30.08;98137.81;4900069;29;1123;-74
2022/06/17 07:31:55;;;;;;;;;;;;;;;24.69;30.29;98135.09;4928368;29;1910;-78
2022/06/17 07:34:20;;;;;;;;;;;;;;;24.37;30.45;98145.56;4937935;29;1041;-78
2022/06/17 07:42:13;;;;;;;;;;;;;;;25.06;29.10;98138.16;4937829;29;1875;-76
2022/06/17 07:44:39;;;;;;;;;;;;;;;25.14;29.55;98140.31;4937586;29;1905;-73
2022/06/17 07:47:04;;;;;;;;;;;;;;;25.08;30.02;98135.69;4937186;29;2109;-74
2022/06/17 07:49:30;;;;;;;;;;;;;;;24.85;29.98;98140.56;4954909;28;1967;-72
2022/06/17 07:51:56;;;;;;;;;;;;;;;24.88;29.82;98125.41;4956996;29;1908;-72
2022/06/17 07:54:21;;;;;;;;;;;;;;;25.10;29.71;98127.47;4956312;28;2075;-76
2022/06/17 07:56:47;;;;;;;;;;;;;;;25.07;29.71;98132.06;4956919;29;1036;-74
2022/06/17 07:59:12;;;;;;;;;;;;;;;24.90;30.04;98130.63;4956584;29;1749;-76
2022/06/17 08:01:38;;;;;;;;;;;;;;;24.37;30.63;98128.50;4956790;29;906;-75
2022/06/17 08:04:03;;;;;;;;;;;;;;;23.96;31.64;98131.56;4957418;29;981;-78
2022/06/17 08:06:29;;;;;;;;;;;;;;;23.99;31.43;98130.66;4964067;28;1003;-75
2022/06/17 08:08:54;;;;;;;;;;;;;;;24.00;31.96;98135.09;4978996;28;908;-80
2022/06/17 08:11:20;;;;;;;;;;;;;;;24.07;31.66;98132.00;4994108;28;1183;-77
2022/06/17 08:13:45;;;;;;;;;;;;;;;23.81;32.19;98143.41;4956944;29;1892;-74
2022/06/17 08:16:11;;;;;;;;;;;;;;;24.20;31.50;98135.59;4951935;29;1040;-76
2022/06/17 08:18:37;;;;;;;;;;;;;;;23.85;31.78;98143.31;4937775;29;1008;-74
2022/06/17 08:21:03;;;;;;;;;;;;;;;23.59;31.64;98137.63;4898996;29;1577;-77
2022/06/17 08:23:28;;;;;;;;;;;;;;;23.26;31.89;98136.25;4899873;29;1052;-76
2022/06/17 08:25:55;;;;;;;;;;;;;;;23.05;31.87;98129.19;4899575;29;1118;-77
2022/06/17 08:28:20;;;;;;;;;;;;;;;23.00;31.73;98136.22;4899604;29;1105;-77
2022/06/17 08:30:51;;;;;;;;;;;;;;;22.80;31.73;98139.22;4918193;29;969;-76
2022/06/17 08:33:18;;;;;;;;;;;;;;;22.75;31.46;98136.16;4901680;29;1980;-76
2022/06/17 08:35:45;;;;;;;;;;;;;;;22.77;31.44;98131.59;4917300;29;955;-76
2022/06/17 08:38:17;;;;;;;;;;;;;;;22.83;31.38;98143.97;4880201;29;1061;-77
2022/06/17 08:41:01;;;;;;;;;;;;;;;22.73;31.19;98145.09;4880240;29;1125;-72
2022/06/17 08:43:45;;;;;;;;;;;;;;;22.66;31.63;98145.31;4890197;29;1875;-77
2022/06/17 08:46:13;;;;;;;;;;;;;;;22.73;31.23;98150.75;4861798;29;1133;-77
2022/06/17 08:48:51;;;;;;;;;;;;;;;22.55;31.08;98150.50;4880262;29;992;-76
2022/06/17 08:51:29;;;;;;;;;;;;;;;22.55;31.04;98144.81;4842867;29;1071;-77
2022/06/17 08:54:04;;;;;;;;;;;;;;;22.50;30.79;98151.03;4824929;29;1903;-77
2022/06/17 08:56:42;;;;;;;;;;;;;;;22.55;30.59;98144.81;4824562;29;1054;-77
2022/06/17 08:59:15;;;;;;;;;;;;;;;22.32;30.99;98145.84;4810952;29;1110;-77
2022/06/17 09:01:52;;;;;;;;;;;;;;;22.33;30.86;98139.75;4834481;29;1285;-77
2022/06/17 09:04:24;;;;;;;;;;;;;;;22.39;30.53;98134.31;4824561;29;1023;-77
2022/06/17 09:06:55;;;;;;;;;;;;;;;22.34;30.75;98141.31;4805923;29;1033;-76
2022/06/17 09:09:47;;;;;;;;;;;;;;;22.29;30.66;98133.38;4801871;29;970;-76
2022/06/17 09:12:13;;;;;;;;;;;;;;;22.28;30.44;98137.44;4806427;29;1990;-77
2022/06/17 09:14:50;;;;;;;;;;;;;;;22.46;30.43;98139.78;4806495;29;1110;-76
2022/06/17 09:17:16;;;;;;;;;;;;;;;22.35;30.33;98136.44;4824270;29;1227;-77
2022/06/17 09:19:43;;;;;;;;;;;;;;;22.29;30.57;98130.53;4815218;29;989;-77
2022/06/17 09:22:09;;;;;;;;;;;;;;;22.16;30.47;98126.81;4806481;29;1017;-76
2022/06/17 09:24:41;;;;;;;;;;;;;;;22.14;30.73;98129.31;4831180;29;974;-77
2022/06/17 09:27:08;;;;;;;;;;;;;;;22.15;30.33;98127.28;4843263;29;968;-77
2022/06/17 09:29:46;;;;;;;;;;;;;;;22.22;30.57;98127.06;4827653;29;972;-77
2022/06/17 09:32:14;;;;;;;;;;;;;;;22.29;30.29;98139.03;4842229;29;2039;-76
2022/06/17 09:34:42;;;;;;;;;;;;;;;22.20;30.34;98141.72;4826840;29;1083;-77
2022/06/17 09:37:10;;;;;;;;;;;;;;;22.22;30.33;98139.22;4841297;29;1225;-76
2022/06/17 09:39:42;;;;;;;;;;;;;;;22.03;30.63;98137.28;4833849;29;1191;-78
2022/06/17 09:42:11;;;;;;;;;;;;;;;21.99;30.76;98125.25;4832783;29;1281;-77
2022/06/17 09:44:41;;;;;;;;;;;;;;;22.15;30.42;98130.91;4841503;29;1270;-76
2022/06/17 09:47:06;;;;;;;;;;;;;;;22.16;30.40;98135.34;4844789;29;1639;-76
2022/06/17 09:49:32;;;;;;;;;;;;;;;22.14;30.29;98137.81;4865895;29;1427;-77
2022/06/17 09:52:09;;;;;;;;;;;;;;;22.07;30.49;98138.78;4882018;29;1813;-76
2022/06/17 09:54:35;;;;;;;;;;;;;;;22.11;30.50;98138.72;4884442;29;1790;-77
2022/06/17 09:57:01;;;;;;;;;;;;;;;22.09;30.50;98135.50;4878553;29;1569;-76
2022/06/17 09:59:29;;;;;;;;;;;;;;;22.19;29.99;98139.31;4918128;29;1632;-76
2022/06/17 10:01:55;;;;;;;;;;;;;;;21.96;30.47;98143.13;4901814;29;1024;-76
2022/06/17 10:04:20;;;;;;;;;;;;;;;22.04;30.32;98139.66;4852684;29;956;-76
2022/06/17 10:06:50;;;;;;;;;;;;;;;22.08;30.32;98139.59;4882889;29;1148;-76
2022/06/17 10:09:34;;;;;;;;;;;;;;;22.05;30.25;98129.13;4882957;29;966;-76
2022/06/17 10:12:04;;;;;;;;;;;;;;;21.90;30.75;98136.41;4882969;29;1982;-77
2022/06/17 10:14:45;;;;;;;;;;;;;;;22.17;30.09;98136.13;4883703;29;1658;-76
2022/06/17 10:20:01;;;;;;;;;;;;;;;22.02;30.44;98138.50;4948890;28;1010;-76
2022/06/17 10:22:26;;;;;;;;;;;;;;;22.07;30.43;98129.47;4977668;28;1005;-76
2022/06/17 10:24:52;;;;;;;;;;;;;;;22.06;30.30;98131.50;4977984;28;956;-77
2022/06/17 10:27:17;;;;;;;;;;;;;;;22.09;30.36;98130.63;4977885;28;970;-77
2022/06/17 10:29:49;;;;;;;;;;;;;;;21.91;30.39;98135.16;4978050;28;1162;-77
2022/06/17 10:32:14;;;;;;;;;;;;;;;21.78;30.73;98132.25;4978410;28;1918;-78
2022/06/17 10:34:53;;;;;;;;;;;;;;;21.91;30.69;98129.50;4994393;28;1617;-78
2022/06/17 10:37:18;;;;;;;;;;;;;;;22.06;30.05;98119.38;4984238;28;1043;-78
2022/06/17 10:39:44;;;;;;;;;;;;;;;22.01;30.52;98111.41;4975085;28;1739;-78
2022/06/17 10:42:19;;;;;;;;;;;;;;;22.03;30.23;98120.28;4943922;29;1058;-79
2022/06/17 10:44:45;;;;;;;;;;;;;;;22.09;30.08;98118.50;4901800;29;1707;-78
2022/06/17 10:47:11;;;;;;;;;;;;;;;22.04;30.30;98121.88;4916088;29;1602;-79
2022/06/17 10:49:36;;;;;;;;;;;;;;;22.01;30.37;98117.09;4914078;29;1758;-78
2022/06/17 10:52:02;;;;;;;;;;;;;;;22.03;30.07;98103.28;4916939;29;1986;-78
2022/06/17 10:54:31;;;;;;;;;;;;;;;22.05;30.30;98106.47;4904073;29;1046;-79
2022/06/17 10:57:05;;;;;;;;;;;;;;;22.02;30.13;98108.16;4903264;29;1164;-78
2022/06/17 10:59:39;;;;;;;;;;;;;;;22.01;30.37;98106.53;4917640;29;1878;-78
2022/06/17 11:02:05;;;;;;;;;;;;;;;21.88;30.45;98102.06;4887566;29;1702;-78
2022/06/17 11:04:34;;;;;;;;;;;;;;;21.88;30.58;98096.41;4882027;29;1058;-78
2022/06/17 11:07:03;;;;;;;;;;;;;;;21.88;30.37;98096.41;4878306;29;1898;-78
2022/06/17 11:09:31;;;;;;;;;;;;;;;22.00;30.04;98095.66;4896112;29;1948;-78
2022/06/17 11:12:04;;;;;;;;;;;;;;;22.01;30.00;98088.75;4870782;29;1675;-78
2022/06/17 11:14:29;;;;;;;;;;;;;;;22.09;29.94;98095.84;4894838;29;975;-78
2022/06/17 11:16:54;;;;;;;;;;;;;;;21.82;30.75;98094.09;4919648;29;1122;-78
2022/06/17 11:19:20;;;;;;;;;;;;;;;22.01;30.40;98100.09;4919621;29;1732;-79
2022/06/17 11:21:47;;;;;;;;;;;;;;;21.84;30.42;98102.94;4882091;29;1077;-78
2022/06/17 11:24:20;;;;;;;;;;;;;;;21.78;30.62;98104.72;4880408;29;1964;-78
2022/06/17 11:26:57;;;;;;;;;;;;;;;21.78;30.47;98093.41;4880030;29;1747;-78
2022/06/17 11:29:23;;;;;;;;;;;;;;;22.11;30.14;98093.38;4882126;29;968;-77
2022/06/17 11:31:49;;;;;;;;;;;;;;;21.97;30.33;98088.06;4880857;29;1854;-77
2022/06/17 11:34:17;;;;;;;;;;;;;;;21.95;30.19;98091.34;4914052;29;1919;-78
2022/06/17 11:36:58;;;;;;;;;;;;;;;21.95;30.41;98090.53;4881117;29;1652;-78
2022/06/17 11:39:24;;;;;;;;;;;;;;;21.81;30.38;98103.03;4877037;29;956;-78
2022/06/17 11:41:49;;;;;;;;;;;;;;;21.90;30.51;98093.91;4872439;29;1653;-78
2022/06/17 11:44:20;;;;;;;;;;;;;;;21.81;30.59;98094.53;4902286;29;1006;-77
2022/06/17 11:46:50;;;;;;;;;;;;;;;21.96;30.41;98092.13;4884029;29;1905;-78
2022/06/17 11:49:17;;;;;;;;;;;;;;;21.98;30.08;98095.31;4910561;29;1079;-78
2022/06/17 11:51:50;;;;;;;;;;;;;;;21.92;30.47;98088.63;4900229;29;1009;-78
2022/06/17 11:54:19;;;;;;;;;;;;;;;21.91;30.28;98093.47;4902148;29;1907;-78
2022/06/17 11:56:47;;;;;;;;;;;;;;;21.92;30.29;98085.78;4880922;29;1108;-78
2022/06/17 11:59:14;;;;;;;;;;;;;;;21.89;30.48;98092.31;4881596;29;1731;-78
2022/06/17 12:01:40;;;;;;;;;;;;;;;21.79;30.54;98097.03;4874409;29;1845;-77
2022/06/17 12:04:06;;;;;;;;;;;;;;;21.85;30.11;98087.53;4905241;29;1006;-77
2022/06/17 12:06:46;;;;;;;;;;;;;;;21.77;30.55;98086.16;4897123;29;1000;-76
2022/06/17 12:09:18;;;;;;;;;;;;;;;21.68;30.77;98088.00;4932844;29;1005;-77
2022/06/17 12:11:45;;;;;;;;;;;;;;;21.99;29.88;98086.38;4918585;29;971;-76
2022/06/17 12:14:15;;;;;;;;;;;;;;;21.84;30.27;98080.28;4918197;29;1903;-77
2022/06/17 12:16:43;;;;;;;;;;;;;;;21.75;30.28;98082.94;4922450;29;1895;-77
2022/06/17 12:19:10;;;;;;;;;;;;;;;21.77;30.39;98077.66;4921140;29;972;-77
2022/06/17 12:21:54;;;;;;;;;;;;;;;21.87;30.22;98084.28;4918319;29;983;-76
2022/06/17 12:24:38;;;;;;;;;;;;;;;22.00;30.07;98073.00;4917947;29;1101;-77
2022/06/17 12:27:36;;;;;;;;;;;;;;;21.83;30.45;98073.03;4922047;29;989;-76
2022/06/17 12:30:05;;;;;;;;;;;;;;;21.78;30.35;98082.06;4843254;29;1231;-77
2022/06/17 12:32:30;;;;;;;;;;;;;;;21.71;30.35;98076.59;4843212;29;1978;-77
2022/06/17 12:35:13;;;;;;;;;;;;;;;21.78;30.41;98076.41;4843283;29;947;-77
2022/06/17 12:37:41;;;;;;;;;;;;;;;21.85;30.25;98075.41;4824861;29;1008;-77
2022/06/17 12:40:19;;;;;;;;;;;;;;;21.63;30.72;98069.50;4824792;29;1059;-77
2022/06/17 12:42:52;;;;;;;;;;;;;;;21.84;30.44;98063.28;4808558;29;1958;-76
2022/06/17 12:45:17;;;;;;;;;;;;;;;21.84;30.18;98063.28;4823659;29;1771;-77
2022/06/17 12:47:43;;;;;;;;;;;;;;;21.84;30.03;98062.50;4834478;29;2125;-77
2022/06/17 12:53:14;;;;;;;;;;;;;;;21.83;30.18;98061.69;4830761;29;1915;-76
2022/06/17 12:55:56;;;;;;;;;;;;;;;21.76;30.17;98061.91;4823578;29;1639;-74
2022/06/17 12:58:28;;;;;;;;;;;;;;;21.76;30.40;98064.75;4842969;29;1115;-75
2022/06/17 13:00:58;;;;;;;;;;;;;;;21.61;30.64;98071.22;4842895;29;977;-76
2022/06/17 13:03:23;;;;;;;;;;;;;;;21.73;30.16;98065.63;4851059;29;1133;-77
2022/06/17 13:05:50;;;;;;;;;;;;;;;21.74;30.37;98055.88;4882329;29;1109;-75
2022/06/17 13:08:33;;;;;;;;;;;;;;;21.79;29.96;98049.66;4898344;29;1052;-76
2022/06/17 13:10:59;;;;;;;;;;;;;;;21.79;30.02;98046.84;4898415;29;1031;-75
2022/06/17 13:13:30;;;;;;;;;;;;;;;21.76;30.10;98044.09;4898405;29;1907;-75
2022/06/17 13:15:57;;;;;;;;;;;;;;;21.76;30.28;98044.91;4904726;29;1220;-76
2022/06/17 13:18:28;;;;;;;;;;;;;;;21.72;30.08;98041.38;4945326;29;1015;-75
2022/06/17 13:20:56;;;;;;;;;;;;;;;21.56;30.28;98025.19;4939362;29;990;-75
2022/06/17 13:23:27;;;;;;;;;;;;;;;21.69;30.29;98039.41;4939276;29;1124;-75